createdAt,value
2019-02-05T00:00:00.024Z,2.45
2019-02-05T00:02:28.646Z,3.30
2019-02-05T00:04:57.233Z,2.72
2019-02-05T00:07:25.771Z,2.47
2019-02-05T00:09:54.357Z,2.60
2019-02-05T00:12:22.883Z,2.87
2019-02-05T00:14:51.526Z,3.05
2019-02-05T00:17:20.062Z,4.35
2019-02-05T00:19:48.584Z,3.50
2019-02-05T00:22:17.218Z,5.00
2019-02-05T00:24:45.840Z,3.17
2019-02-05T00:27:14.462Z,3.98
2019-02-05T00:29:42.980Z,3.42
2019-02-05T00:32:11.598Z,3.72
2019-02-05T00:34:40.116Z,2.77
2019-02-05T00:37:09.078Z,3.85
2019-02-05T00:39:38.012Z,2.70
2019-02-05T00:42:06.956Z,4.42
2019-02-05T00:44:35.574Z,3.05
2019-02-05T00:47:04.175Z,3.75
2019-02-05T00:49:32.717Z,3.35
2019-02-05T00:52:01.564Z,3.83
2019-02-05T00:54:30.550Z,1.90
2019-02-05T00:56:59.436Z,1.70
2019-02-05T00:59:28.393Z,2.67
2019-02-05T01:01:57.366Z,3.52
2019-02-05T01:04:26.469Z,3.77
2019-02-05T01:06:55.057Z,4.58
2019-02-05T01:09:23.930Z,5.40
2019-02-05T01:11:54.479Z,4.37
2019-02-05T01:14:23.066Z,4.12
2019-02-05T01:16:51.921Z,3.15
2019-02-05T01:19:20.788Z,4.92
2019-02-05T01:21:49.333Z,3.33
2019-02-05T01:24:17.860Z,5.70
2019-02-05T01:26:46.737Z,4.47
2019-02-05T01:29:15.256Z,3.60
2019-02-05T01:31:43.883Z,2.70
2019-02-05T01:34:12.771Z,3.20
2019-02-05T01:36:41.309Z,4.00
2019-02-05T01:39:09.997Z,4.67
2019-02-05T01:41:38.534Z,4.10
2019-02-05T01:44:07.456Z,5.60
2019-02-05T01:46:36.005Z,5.42
2019-02-05T01:49:05.095Z,6.28
2019-02-05T01:51:33.651Z,3.95
2019-02-05T01:54:02.241Z,3.70
2019-02-05T01:56:40.393Z,3.98
2019-02-05T01:59:20.545Z,3.50
2019-02-05T02:01:49.122Z,6.05
2019-02-05T02:04:17.975Z,6.15
2019-02-05T02:06:47.195Z,5.72
2019-02-05T02:09:16.129Z,5.00
2019-02-05T02:11:44.681Z,3.85
2019-02-05T02:14:13.529Z,3.40
2019-02-05T02:16:42.104Z,6.10
2019-02-05T02:19:10.979Z,6.97
2019-02-05T02:21:39.996Z,4.53
2019-02-05T02:24:09.067Z,3.47
2019-02-05T02:26:37.775Z,4.08
2019-02-05T02:29:06.901Z,4.30
2019-02-05T02:31:35.824Z,4.30
2019-02-05T02:34:04.780Z,4.30
2019-02-05T02:36:33.640Z,4.40
2019-02-05T02:39:02.754Z,3.10
2019-02-05T02:41:31.314Z,2.85
2019-02-05T02:43:59.939Z,3.95
2019-02-05T02:46:28.443Z,4.78
2019-02-05T02:51:34.190Z,5.45
2019-02-05T02:54:03.084Z,4.60
2019-02-05T02:56:31.950Z,5.50
2019-02-05T02:59:00.525Z,5.92
2019-02-05T03:01:29.070Z,6.08
2019-02-05T03:03:57.979Z,5.00
2019-02-05T03:06:26.864Z,4.92
2019-02-05T03:08:56.115Z,6.10
2019-02-05T03:11:25.088Z,4.00
2019-02-05T03:13:53.629Z,5.78
2019-02-05T03:16:22.497Z,6.20
2019-02-05T03:18:51.417Z,4.40
2019-02-05T03:21:19.994Z,5.45
2019-02-05T03:23:48.554Z,6.10
2019-02-05T03:26:17.414Z,5.22
2019-02-05T03:28:46.376Z,5.00
2019-02-05T03:31:14.940Z,4.35
2019-02-05T03:33:43.791Z,5.28
2019-02-05T03:36:12.657Z,6.17
2019-02-05T03:38:41.501Z,6.47
2019-02-05T03:41:10.090Z,5.53
2019-02-05T03:43:38.818Z,5.30
2019-02-05T03:46:07.757Z,4.17
2019-02-05T03:48:36.653Z,6.70
2019-02-05T03:51:06.818Z,6.35
2019-02-05T03:53:36.887Z,6.33
2019-02-05T03:56:16.319Z,6.67
2019-02-05T03:58:49.597Z,7.30
2019-02-05T04:01:22.801Z,7.00
2019-02-05T04:04:09.361Z,6.37
2019-02-05T04:06:39.441Z,4.70
2019-02-05T04:09:09.914Z,8.68
2019-02-05T04:11:52.369Z,7.83
2019-02-05T04:14:44.398Z,6.28
2019-02-05T04:17:37.067Z,7.22
2019-02-05T04:20:10.013Z,7.28
2019-02-05T04:22:40.086Z,7.80
2019-02-05T04:25:33.309Z,9.03
2019-02-05T04:28:11.244Z,6.28
2019-02-05T04:30:49.030Z,7.28
2019-02-05T04:33:33.293Z,6.55
2019-02-05T04:36:03.460Z,5.00
2019-02-05T04:38:47.168Z,8.10
2019-02-05T04:41:27.769Z,6.03
2019-02-05T04:44:30.753Z,7.00
2019-02-05T04:47:03.863Z,7.10
2019-02-05T04:49:51.057Z,8.50
2019-02-05T04:52:23.859Z,7.47
2019-02-05T04:55:08.351Z,9.90
2019-02-05T04:57:40.466Z,7.60
2019-02-05T05:00:25.831Z,7.70
2019-02-05T05:03:23.487Z,5.37
2019-02-05T05:05:58.335Z,7.33
2019-02-05T05:08:45.661Z,7.80
2019-02-05T05:11:14.739Z,8.80
2019-02-05T05:13:43.643Z,7.92
2019-02-05T05:16:12.214Z,9.78
2019-02-05T05:18:41.066Z,8.35
2019-02-05T05:21:09.940Z,8.40
2019-02-05T05:23:38.522Z,5.97
2019-02-05T05:26:07.518Z,9.08
2019-02-05T05:28:37.872Z,8.78
2019-02-05T05:31:06.407Z,6.80
2019-02-05T05:33:35.356Z,9.20
2019-02-05T05:36:04.446Z,9.45
2019-02-05T05:38:33.316Z,7.08
2019-02-05T05:41:01.930Z,7.92
2019-02-05T05:43:50.165Z,10.58
2019-02-05T05:46:19.013Z,9.88
2019-02-05T05:48:47.912Z,9.63
2019-02-05T05:51:16.848Z,10.53
2019-02-05T05:53:45.721Z,9.08
2019-02-05T05:56:14.594Z,7.37
2019-02-05T05:58:43.545Z,7.37
2019-02-05T06:01:12.412Z,9.60
2019-02-05T06:03:41.294Z,8.33
2019-02-05T06:06:09.816Z,8.60
2019-02-05T06:08:38.812Z,8.35
2019-02-05T06:11:07.327Z,8.33
2019-02-05T06:13:36.501Z,5.17
2019-02-05T06:16:05.369Z,9.33
2019-02-05T06:18:34.245Z,6.72
2019-02-05T06:21:03.090Z,6.33
2019-02-05T06:23:31.678Z,9.10
2019-02-05T06:26:00.223Z,6.85
2019-02-05T06:28:34.613Z,9.45
2019-02-05T06:30:59.042Z,6.20
2019-02-05T06:33:27.879Z,5.53
2019-02-05T06:35:56.524Z,7.53
2019-02-05T06:38:25.401Z,6.83
2019-02-05T06:40:54.024Z,8.48
2019-02-05T06:43:22.737Z,8.28
2019-02-05T06:45:51.663Z,7.87
2019-02-05T06:48:20.521Z,5.47
2019-02-05T06:50:49.406Z,8.35
2019-02-05T06:53:18.337Z,6.92
2019-02-05T06:55:47.232Z,6.65
2019-02-05T06:58:15.788Z,7.20
2019-02-05T07:00:44.343Z,7.60
2019-02-05T07:03:13.532Z,6.53
2019-02-05T07:06:01.468Z,8.48
2019-02-05T07:08:30.479Z,4.17
2019-02-05T07:10:59.458Z,8.80
2019-02-05T07:13:28.402Z,6.50
2019-02-05T07:15:57.602Z,8.55
2019-02-05T07:18:26.315Z,3.02
2019-02-05T07:20:55.201Z,5.95
2019-02-05T07:23:23.864Z,8.43
2019-02-05T07:25:52.795Z,6.42
2019-02-05T07:28:21.391Z,7.45
2019-02-05T07:30:50.386Z,6.70
2019-02-05T07:33:19.675Z,6.55
2019-02-05T07:35:48.227Z,6.08
2019-02-05T07:38:17.249Z,8.15
2019-02-05T07:40:46.199Z,7.33
2019-02-05T07:43:15.054Z,8.15
2019-02-05T07:45:43.933Z,6.60
2019-02-05T07:48:12.909Z,8.83
2019-02-05T07:50:41.580Z,6.65
2019-02-05T07:53:10.689Z,7.50
2019-02-05T07:55:39.295Z,6.47
2019-02-05T07:58:08.251Z,7.60
2019-02-05T08:00:37.385Z,8.75
2019-02-05T08:03:06.419Z,7.40
2019-02-05T08:05:35.566Z,6.87
2019-02-05T08:08:05.283Z,5.80
2019-02-05T08:10:34.173Z,7.50
2019-02-05T08:13:03.210Z,9.30
2019-02-05T08:15:33.954Z,6.53
2019-02-05T08:18:03.377Z,5.80
2019-02-05T08:20:32.430Z,8.40
2019-02-05T08:23:01.445Z,7.37
2019-02-05T08:25:30.569Z,7.58
2019-02-05T08:27:59.823Z,6.30
2019-02-05T08:30:33.047Z,7.37
2019-02-05T08:33:01.949Z,7.37
2019-02-05T08:35:30.603Z,7.25
2019-02-05T08:37:59.151Z,7.85
2019-02-05T08:40:27.828Z,6.62
2019-02-05T08:42:56.774Z,7.90
2019-02-05T08:45:34.229Z,5.28
2019-02-05T08:48:03.249Z,8.83
2019-02-05T08:50:32.707Z,6.53
2019-02-05T08:53:21.164Z,7.03
2019-02-05T08:55:50.456Z,5.28
2019-02-05T08:58:30.277Z,4.87
2019-02-05T09:00:49.533Z,9.68
2019-02-05T09:03:18.459Z,7.90
2019-02-05T09:05:47.507Z,6.72
2019-02-05T09:08:16.418Z,4.62
2019-02-05T09:10:45.050Z,7.87
2019-02-05T09:13:35.154Z,11.40
2019-02-05T09:16:03.924Z,8.00
2019-02-05T09:18:32.911Z,6.30
2019-02-05T09:21:01.963Z,5.92
2019-02-05T09:23:30.912Z,8.50
2019-02-05T09:25:59.794Z,6.30
2019-02-05T09:28:28.694Z,8.05
2019-02-05T09:30:57.575Z,9.43
2019-02-05T09:33:26.656Z,8.45
2019-02-05T09:35:55.238Z,11.70
2019-02-05T09:38:24.139Z,6.87
2019-02-05T09:40:53.030Z,5.90
2019-02-05T09:43:22.032Z,7.70
2019-02-05T09:48:45.610Z,9.80
2019-02-05T09:51:14.568Z,7.00
2019-02-05T09:53:43.837Z,6.90
2019-02-05T09:56:12.711Z,6.25
2019-02-05T09:58:41.293Z,8.10
2019-02-05T10:01:09.925Z,8.20
2019-02-05T10:03:38.520Z,9.23
2019-02-05T10:06:07.615Z,7.90
2019-02-05T10:08:36.210Z,9.05
2019-02-05T10:11:05.469Z,8.38
2019-02-05T10:13:34.001Z,5.45
2019-02-05T10:16:03.078Z,7.72
2019-02-05T10:18:32.043Z,9.10
2019-02-05T10:21:00.637Z,9.90
2019-02-05T10:23:29.730Z,11.15
2019-02-05T10:25:58.705Z,11.25
2019-02-05T10:28:27.864Z,9.75
2019-02-05T10:30:56.659Z,9.75
2019-02-05T10:33:25.579Z,9.58
2019-02-05T10:35:54.561Z,12.00
2019-02-05T10:38:23.104Z,6.70
2019-02-05T10:40:52.165Z,10.00
2019-02-05T10:43:20.730Z,10.38
2019-02-05T10:45:49.494Z,10.53
2019-02-05T10:48:18.387Z,10.85
2019-02-05T10:50:47.378Z,10.10
2019-02-05T10:53:16.332Z,11.33
2019-02-05T10:55:45.247Z,12.73
2019-02-05T10:58:14.005Z,10.78
2019-02-05T11:00:43.176Z,10.30
2019-02-05T11:03:31.084Z,12.43
2019-02-05T11:05:59.974Z,9.18
2019-02-05T11:08:28.894Z,11.08
2019-02-05T11:10:57.466Z,6.85
2019-02-05T11:13:26.382Z,11.90
2019-02-05T11:15:55.264Z,9.28
2019-02-05T11:18:23.966Z,11.45
2019-02-05T11:20:52.497Z,7.65
2019-02-05T11:23:21.221Z,11.57
2019-02-05T11:25:49.818Z,9.58
2019-02-05T11:28:18.752Z,9.50
2019-02-05T11:30:48.070Z,8.43
2019-02-05T11:33:16.649Z,9.23
2019-02-05T11:35:45.749Z,10.88
2019-02-05T11:38:14.392Z,9.60
2019-02-05T11:40:43.523Z,9.53
2019-02-05T11:43:12.100Z,9.90
2019-02-05T11:45:41.047Z,8.10
2019-02-05T11:48:11.566Z,11.90
2019-02-05T11:50:40.203Z,9.90
2019-02-05T11:53:08.849Z,8.58
2019-02-05T11:55:37.600Z,7.05
2019-02-05T11:58:06.585Z,7.28
2019-02-05T12:00:48.982Z,9.03
2019-02-05T12:03:18.398Z,5.83
2019-02-05T12:05:48.596Z,7.30
2019-02-05T12:08:19.560Z,5.90
2019-02-05T12:10:48.169Z,8.93
2019-02-05T12:13:16.729Z,4.92
2019-02-05T12:15:45.696Z,8.35
2019-02-05T12:18:15.025Z,7.50
2019-02-05T12:20:44.454Z,6.90
2019-02-05T12:23:13.044Z,6.45
2019-02-05T12:25:41.666Z,7.83
2019-02-05T12:28:10.536Z,8.30
2019-02-05T12:30:45.376Z,7.53
2019-02-05T12:33:12.693Z,7.33
2019-02-05T12:35:41.289Z,6.50
2019-02-05T12:38:30.688Z,8.03
2019-02-05T12:41:20.179Z,7.03
2019-02-05T12:43:49.092Z,6.90
2019-02-05T12:46:17.709Z,9.33
2019-02-05T12:48:46.273Z,7.25
2019-02-05T12:51:14.891Z,6.95
2019-02-05T12:53:43.475Z,7.85
2019-02-05T12:56:12.104Z,8.73
2019-02-05T12:58:41.003Z,6.60
2019-02-05T13:01:09.864Z,6.17
2019-02-05T13:03:38.457Z,5.05
2019-02-05T13:06:07.085Z,5.33
2019-02-05T13:08:35.676Z,7.87
2019-02-05T13:11:04.549Z,5.40
2019-02-05T13:13:33.778Z,8.43
2019-02-05T13:16:04.528Z,6.22
2019-02-05T13:18:32.846Z,6.85
2019-02-05T13:21:01.487Z,7.25
2019-02-05T13:23:30.076Z,8.13
2019-02-05T13:25:59.016Z,7.72
2019-02-05T13:28:27.589Z,6.17
2019-02-05T13:31:07.762Z,7.92
2019-02-05T13:33:28.653Z,7.00
2019-02-05T13:35:57.538Z,7.83
2019-02-05T13:38:45.461Z,8.18
2019-02-05T13:41:14.514Z,7.55
2019-02-05T13:43:43.077Z,8.55
2019-02-05T13:46:12.982Z,6.90
2019-02-05T13:48:41.582Z,6.45
2019-02-05T13:51:10.583Z,6.30
2019-02-05T13:53:39.247Z,9.65
2019-02-05T13:56:09.596Z,9.53
2019-02-05T13:58:38.137Z,6.35
2019-02-05T14:01:06.788Z,6.30
2019-02-05T14:03:35.757Z,5.75
2019-02-05T14:06:04.897Z,6.80
2019-02-05T14:08:33.897Z,8.13
2019-02-05T14:11:02.574Z,5.65
2019-02-05T14:13:31.831Z,7.47
2019-02-05T14:16:00.543Z,6.83
2019-02-05T14:18:29.187Z,8.25
2019-02-05T14:20:59.153Z,5.65
2019-02-05T14:23:27.720Z,5.45
2019-02-05T14:25:56.424Z,5.78
2019-02-05T14:28:26.329Z,9.08
2019-02-05T14:30:55.166Z,7.03
2019-02-05T14:33:23.886Z,8.93
2019-02-05T14:35:52.644Z,7.58
2019-02-05T14:38:21.598Z,8.05
2019-02-05T14:40:50.962Z,7.40
2019-02-05T14:43:19.514Z,6.85
2019-02-05T14:45:48.244Z,8.25
2019-02-05T14:48:16.831Z,8.60
2019-02-05T14:50:47.504Z,6.95
2019-02-05T14:53:35.471Z,7.90
2019-02-05T14:56:04.416Z,8.25
2019-02-05T14:58:33.475Z,8.65
2019-02-05T15:01:02.027Z,7.53
2019-02-05T15:03:30.602Z,6.53
2019-02-05T15:06:00.798Z,9.33
2019-02-05T15:08:29.518Z,8.23
2019-02-05T15:11:17.741Z,7.83
2019-02-05T15:13:55.241Z,8.58
2019-02-05T15:16:24.297Z,7.08
2019-02-05T15:18:52.861Z,6.70
2019-02-05T15:21:24.450Z,8.00
2019-02-05T15:23:53.377Z,8.23
2019-02-05T15:26:21.953Z,6.37
2019-02-05T15:28:50.660Z,7.97
2019-02-05T15:31:19.237Z,8.98
2019-02-05T15:33:49.459Z,7.22
2019-02-05T15:36:37.347Z,6.40
2019-02-05T15:39:09.331Z,7.20
2019-02-05T15:41:37.894Z,6.37
2019-02-05T15:44:06.938Z,5.58
2019-02-05T15:46:35.579Z,7.30
2019-02-05T15:49:04.425Z,6.78
2019-02-05T15:51:52.320Z,7.37
2019-02-05T15:54:21.290Z,5.92
2019-02-05T15:56:50.286Z,6.85
2019-02-05T15:59:18.939Z,7.10
2019-02-05T16:01:47.566Z,8.10
2019-02-05T16:04:16.250Z,7.10
2019-02-05T16:06:44.802Z,6.92
2019-02-05T16:09:13.462Z,7.60
2019-02-05T16:11:42.186Z,8.75
2019-02-05T16:14:11.015Z,5.03
2019-02-05T16:16:39.608Z,7.05
2019-02-05T16:19:27.522Z,7.17
2019-02-05T16:21:56.070Z,5.30
2019-02-05T16:24:24.960Z,6.97
2019-02-05T16:26:53.907Z,7.30
2019-02-05T16:29:22.534Z,8.33
2019-02-05T16:31:51.454Z,7.40
2019-02-05T16:34:20.070Z,5.47
2019-02-05T16:36:49.032Z,6.45
2019-02-05T16:39:17.653Z,6.12
2019-02-05T16:41:46.551Z,7.35
2019-02-05T16:44:15.190Z,6.60
2019-02-05T16:46:43.794Z,6.60
2019-02-05T16:49:12.391Z,7.12
2019-02-05T16:51:40.923Z,5.40
2019-02-05T16:54:09.880Z,7.30
2019-02-05T16:56:38.866Z,7.42
2019-02-05T16:59:07.521Z,6.12
2019-02-05T17:01:36.112Z,7.67
2019-02-05T17:04:04.930Z,6.50
2019-02-05T17:06:33.865Z,6.55
2019-02-05T17:09:02.711Z,4.12
2019-02-05T17:11:31.595Z,7.20
2019-02-05T17:14:01.196Z,6.45
2019-02-05T17:16:29.752Z,7.78
2019-02-05T17:18:58.352Z,7.67
2019-02-05T17:21:26.981Z,8.68
2019-02-05T17:23:55.562Z,8.20
2019-02-05T17:26:24.113Z,7.30
2019-02-05T17:28:52.925Z,7.70
2019-02-05T17:31:21.466Z,8.40
2019-02-05T17:33:50.550Z,6.80
2019-02-05T17:36:19.218Z,8.30
2019-02-05T17:38:47.799Z,7.35
2019-02-05T17:41:16.969Z,10.15
2019-02-05T17:43:46.268Z,9.93
2019-02-05T17:46:15.365Z,8.70
2019-02-05T17:48:43.991Z,8.73
2019-02-05T17:51:12.626Z,9.58
2019-02-05T17:53:41.279Z,7.08
2019-02-05T17:56:09.945Z,9.85
2019-02-05T17:58:38.495Z,9.80
2019-02-05T18:01:08.806Z,7.30
2019-02-05T18:03:37.363Z,10.13
2019-02-05T18:06:06.533Z,8.85
2019-02-05T18:08:35.433Z,6.58
2019-02-05T18:11:04.613Z,9.35
2019-02-05T18:13:33.194Z,7.17
2019-02-05T18:16:22.796Z,7.87
2019-02-05T18:18:51.829Z,9.75
2019-02-05T18:21:20.525Z,7.58
2019-02-05T18:23:49.547Z,7.53
2019-02-05T18:26:18.604Z,8.38
2019-02-05T18:28:47.209Z,6.45
2019-02-05T18:31:15.795Z,8.08
2019-02-05T18:33:44.370Z,8.83
2019-02-05T18:36:13.037Z,6.83
2019-02-05T18:38:41.586Z,5.85
2019-02-05T18:41:10.578Z,8.68
2019-02-05T18:43:39.237Z,9.78
2019-02-05T18:46:08.063Z,9.80
2019-02-05T18:48:36.719Z,9.93
2019-02-05T18:51:05.461Z,8.43
2019-02-05T18:53:54.879Z,10.38
2019-02-05T18:56:23.816Z,8.78
2019-02-05T18:58:52.477Z,10.23
2019-02-05T19:01:21.269Z,9.20
2019-02-05T19:03:50.165Z,8.73
2019-02-05T19:06:19.115Z,9.05
2019-02-05T19:08:47.708Z,11.48
2019-02-05T19:11:16.346Z,10.18
2019-02-05T19:13:44.989Z,10.50
2019-02-05T19:16:13.568Z,12.35
2019-02-05T19:18:42.206Z,10.58
2019-02-05T19:21:10.764Z,12.33
2019-02-05T19:23:39.384Z,11.20
2019-02-05T19:26:13.201Z,14.00
2019-02-05T19:28:41.969Z,10.20
2019-02-05T19:31:17.969Z,13.30
2019-02-05T19:33:46.970Z,13.32
2019-02-05T19:36:15.665Z,12.73
2019-02-05T19:38:45.054Z,12.50
2019-02-05T19:41:13.651Z,10.70
2019-02-05T19:43:42.330Z,13.28
2019-02-05T19:46:29.129Z,11.03
2019-02-05T19:48:59.472Z,10.38
2019-02-05T19:51:28.104Z,11.22
2019-02-05T19:53:56.715Z,14.68
2019-02-05T19:56:25.309Z,11.78
2019-02-05T19:58:53.971Z,12.95
2019-02-05T20:01:22.726Z,13.83
2019-02-05T20:03:51.305Z,12.35
2019-02-05T20:06:19.978Z,10.78
2019-02-05T20:09:07.896Z,13.75
2019-02-05T20:11:36.540Z,14.25
2019-02-05T20:14:05.170Z,16.30
2019-02-05T20:16:34.184Z,14.07
2019-02-05T20:19:03.052Z,12.20
2019-02-05T20:21:32.075Z,15.23
2019-02-05T20:24:00.955Z,12.50
2019-02-05T20:26:30.036Z,13.75
2019-02-05T20:28:58.671Z,14.47
2019-02-05T20:31:27.332Z,14.95
2019-02-05T20:33:59.549Z,12.78
2019-02-05T20:36:28.440Z,13.50
2019-02-05T20:38:57.081Z,13.78
2019-02-05T20:41:26.003Z,14.47
2019-02-05T20:43:54.636Z,14.80
2019-02-05T20:46:23.338Z,15.05
2019-02-05T20:48:51.963Z,15.48
2019-02-05T20:51:20.609Z,12.78
2019-02-05T20:53:49.355Z,13.45
2019-02-05T20:56:19.800Z,9.43
2019-02-05T20:58:48.800Z,15.93
2019-02-05T21:01:18.147Z,15.00
2019-02-05T21:03:46.827Z,17.30
2019-02-05T21:06:21.665Z,12.15
2019-02-05T21:08:50.292Z,13.95
2019-02-05T21:11:18.968Z,11.75
2019-02-05T21:13:47.823Z,13.72
2019-02-05T21:16:16.435Z,11.50
2019-02-05T21:19:04.350Z,15.15
2019-02-05T21:21:33.009Z,12.65
2019-02-05T21:24:01.606Z,12.45
2019-02-05T21:26:30.789Z,13.05
2019-02-05T21:28:59.769Z,11.48
2019-02-05T21:31:28.445Z,13.78
2019-02-05T21:33:57.415Z,12.68
2019-02-05T21:36:26.027Z,14.90
2019-02-05T21:38:54.678Z,15.15
2019-02-05T21:41:23.794Z,15.60
2019-02-05T21:43:52.516Z,10.58
2019-02-05T21:46:21.135Z,12.03
2019-02-05T21:48:49.694Z,14.90
2019-02-05T21:51:18.808Z,12.88
2019-02-05T21:53:47.889Z,13.38
2019-02-05T21:56:16.756Z,13.35
2019-02-05T21:58:46.116Z,15.48
2019-02-05T22:01:14.771Z,13.68
2019-02-05T22:03:43.443Z,12.73
2019-02-05T22:06:12.305Z,15.20
2019-02-05T22:08:40.965Z,15.85
2019-02-05T22:11:09.934Z,14.03
2019-02-05T22:13:38.523Z,11.97
2019-02-05T22:16:28.290Z,13.32
2019-02-05T22:18:57.390Z,14.20
2019-02-05T22:21:26.005Z,14.98
2019-02-05T22:23:54.617Z,17.60
2019-02-05T22:26:23.354Z,14.63
2019-02-05T22:28:52.555Z,15.23
2019-02-05T22:31:21.135Z,13.15
2019-02-05T22:33:49.795Z,12.33
2019-02-05T22:36:18.368Z,13.45
2019-02-05T22:38:47.054Z,11.85
2019-02-05T22:41:16.010Z,10.15
2019-02-05T22:43:44.674Z,13.78
2019-02-05T22:46:13.199Z,13.53
2019-02-05T22:48:41.809Z,11.88
2019-02-05T22:51:10.708Z,12.40
2019-02-05T22:53:39.301Z,11.10
2019-02-05T22:56:07.872Z,12.40
2019-02-05T22:58:36.454Z,15.93
2019-02-05T23:01:14.375Z,12.50
2019-02-05T23:03:45.197Z,13.68
2019-02-05T23:06:44.064Z,14.45
2019-02-05T23:09:22.119Z,13.08
2019-02-05T23:11:52.244Z,14.65
2019-02-05T23:14:21.341Z,14.95
2019-02-05T23:16:49.931Z,14.95
2019-02-05T23:19:19.988Z,12.55
2019-02-05T23:21:48.593Z,11.97
2019-02-05T23:24:17.615Z,15.40
2019-02-05T23:26:46.136Z,14.78
2019-02-05T23:29:14.702Z,15.18
2019-02-05T23:31:43.241Z,14.18
2019-02-05T23:34:12.193Z,11.65
2019-02-05T23:36:40.751Z,12.65
2019-02-05T23:39:10.029Z,14.07
2019-02-05T23:41:38.625Z,14.58
2019-02-05T23:44:07.327Z,13.43
2019-02-05T23:46:35.990Z,10.48
2019-02-05T23:49:05.437Z,15.23
2019-02-05T23:51:34.411Z,12.75
2019-02-05T23:54:03.276Z,15.08
2019-02-05T23:56:31.896Z,11.28
2019-02-05T23:59:00.755Z,10.43
